Disclaimer

Please do not use the information listed here in-flight or in-navigation, as they are not provided to us by the airports but are provided by volunteers, so they might be outdated.

Search


Regions


Airport information page

Radio informations:
Tower (TWR) - 129.25 MHz
HANDLING - 131.45 MHz
Approach (APP) - 121.075 MHz

Airport informations:
Latitude: 50° 28' 27.31" N
Longitude: 019° 04' 48.07" E
Elevation: 995 feet - 303 meters
Operating hours: N/A
Operating agency: Civil government, landing fees and diplomatic clearance may be required
Timezone: UTC+1(+2DT)
Fuel: N/A

Runway information:
09/27 - 9183 x 195 feet< - >2799 x 59 meters

Recent METARs:
EPKT 191700Z 09013KT 9999 -SN OVC010 M00/M03 Q1020
EPKT 191730Z 08013KT 9999 -SN OVC010 M00/M03 Q1021
EPKT 191800Z 07012KT 9999 SCT009 OVC011 M00/M03 Q1021

Airport on the map: